Time;durP1;ratioP1;P1;durP2;ratioP2;P2;SDS_P1;SDS_P2;PMS_P1;PMS_P2;Temp;Humidity;BMP_temperature;BMP_pressure;BME280_temperature;BME280_humidity;BME280_pressure;Samples;Min_cycle;Max_cycle;Signal;HPM_P1;HPM_P2
2021/09/23 00:01:29;;;;;;;;;;;17.40;79.70;;;;;;4274319;33;44774;-81
2021/09/23 00:04:02;;;;;;;;;;;17.40;79.60;;;;;;4274051;33;43096;-82
2021/09/23 00:06:29;;;;;;;;;;;17.40;79.70;;;;;;4273909;33;45260;-82
2021/09/23 00:08:56;;;;;;;;;;;17.40;79.80;;;;;;4289090;33;43504;-82
2021/09/23 00:11:23;;;;;;;;;;;17.40;79.80;;;;;;4276894;33;45777;-82
2021/09/23 00:13:51;;;;;;;;;;;17.40;79.90;;;;;;4289627;33;45812;-82
2021/09/23 00:16:20;;;;;;;;;;;17.40;79.90;;;;;;4276614;33;44143;-82
2021/09/23 00:18:51;;;;;;;;;;;17.30;79.70;;;;;;4276081;33;43370;-83
2021/09/23 00:21:18;;;;;;;;;;;17.30;79.80;;;;;;4276667;33;43087;-82
2021/09/23 00:23:47;;;;;;;;;;;17.30;79.80;;;;;;4289416;33;44454;-82
2021/09/23 00:26:21;;;;;;;;;;;17.30;79.80;;;;;;4276248;33;41892;-83
2021/09/23 00:28:49;;;;;;;;;;;17.30;79.70;;;;;;4289177;33;42541;-84
2021/09/23 00:31:18;;;;;;;;;;;17.20;79.70;;;;;;4289379;33;44865;-82
2021/09/23 00:33:46;;;;;;;;;;;17.20;79.70;;;;;;4276183;33;44653;-82
2021/09/23 00:36:13;;;;;;;;;;;17.20;79.80;;;;;;4276407;33;43582;-82
2021/09/23 00:38:43;;;;;;;;;;;17.20;79.90;;;;;;4276088;33;44695;-82
2021/09/23 00:41:15;;;;;;;;;;;17.20;79.90;;;;;;4288831;33;43227;-83
2021/09/23 00:43:42;;;;;;;;;;;17.20;80.00;;;;;;4289290;33;43191;-82
2021/09/23 00:46:09;;;;;;;;;;;17.10;80.00;;;;;;4276082;33;42965;-84
2021/09/23 00:48:37;;;;;;;;;;;17.10;80.30;;;;;;4275630;33;44286;-84
2021/09/23 00:51:07;;;;;;;;;;;16.90;80.50;;;;;;4276270;33;43397;-83
2021/09/23 00:53:34;;;;;;;;;;;16.90;80.70;;;;;;4275699;33;43115;-83
2021/09/23 00:56:02;;;;;;;;;;;16.80;80.90;;;;;;4288691;33;43447;-84
2021/09/23 00:58:29;;;;;;;;;;;16.80;81.00;;;;;;4275743;33;43318;-83
2021/09/23 01:00:56;;;;;;;;;;;16.70;81.20;;;;;;4276256;33;44065;-83
2021/09/23 01:03:24;;;;;;;;;;;16.70;81.40;;;;;;4288671;33;42878;-83
2021/09/23 01:05:51;;;;;;;;;;;16.60;81.40;;;;;;4288431;33;44145;-83
2021/09/23 01:08:18;;;;;;;;;;;16.60;81.50;;;;;;4288834;33;44108;-83
2021/09/23 01:10:45;;;;;;;;;;;16.60;81.60;;;;;;4287721;33;44198;-83
2021/09/23 01:13:13;;;;;;;;;;;16.60;81.60;;;;;;4288867;33;45417;-83
2021/09/23 01:15:40;;;;;;;;;;;16.60;81.50;;;;;;4275266;33;45930;-83
2021/09/23 01:18:07;;;;;;;;;;;16.60;81.30;;;;;;4287034;33;44955;-84
2021/09/23 01:20:34;;;;;;;;;;;16.60;81.20;;;;;;4288552;33;46033;-84
2021/09/23 01:23:01;;;;;;;;;;;16.70;81.20;;;;;;4288190;33;45830;-84
2021/09/23 01:25:28;;;;;;;;;;;16.70;81.20;;;;;;4275902;33;43174;-84
2021/09/23 01:27:56;;;;;;;;;;;16.70;81.10;;;;;;4288386;33;43508;-84
2021/09/23 01:30:25;;;;;;;;;;;16.70;81.10;;;;;;4286884;33;45494;-84
2021/09/23 01:32:55;;;;;;;;;;;16.70;81.00;;;;;;4275514;33;43934;-84
2021/09/23 01:35:26;;;;;;;;;;;16.70;80.90;;;;;;4288074;33;43195;-84
2021/09/23 01:37:53;;;;;;;;;;;16.70;80.80;;;;;;4287910;33;45778;-84
2021/09/23 01:40:23;;;;;;;;;;;16.70;80.80;;;;;;4275255;33;44249;-83
2021/09/23 01:42:50;;;;;;;;;;;16.60;80.90;;;;;;4275485;33;44145;-83
2021/09/23 01:45:17;;;;;;;;;;;16.60;81.20;;;;;;4288264;33;45886;-83
2021/09/23 01:47:47;;;;;;;;;;;16.40;81.40;;;;;;4275142;33;44015;-83
2021/09/23 01:50:16;;;;;;;;;;;16.40;81.80;;;;;;4274901;33;43691;-83
2021/09/23 01:52:43;;;;;;;;;;;16.30;82.10;;;;;;4287141;33;45322;-83
2021/09/23 01:55:13;;;;;;;;;;;16.20;82.20;;;;;;4274790;33;45393;-83
2021/09/23 01:57:40;;;;;;;;;;;16.20;82.40;;;;;;4288103;33;43895;-83
2021/09/23 02:00:08;;;;;;;;;;;16.10;82.50;;;;;;4275099;33;46038;-83
2021/09/23 02:02:35;;;;;;;;;;;16.10;82.80;;;;;;4287395;33;44720;-82
2021/09/23 02:05:03;;;;;;;;;;;16.00;83.00;;;;;;4274909;33;44049;-83
2021/09/23 02:07:30;;;;;;;;;;;15.90;83.20;;;;;;4274842;33;44942;-83
2021/09/23 02:09:57;;;;;;;;;;;15.90;83.50;;;;;;4274748;33;44383;-82
2021/09/23 02:12:26;;;;;;;;;;;15.80;83.60;;;;;;4287688;33;43166;-83
2021/09/23 02:14:53;;;;;;;;;;;15.80;83.80;;;;;;4288139;33;45466;-83
2021/09/23 02:17:21;;;;;;;;;;;15.80;84.00;;;;;;4274809;33;45319;-82
2021/09/23 02:19:48;;;;;;;;;;;15.80;84.00;;;;;;4275361;33;32575;-83
2021/09/23 02:22:15;;;;;;;;;;;15.80;84.10;;;;;;4274488;33;42791;-83
2021/09/23 02:24:45;;;;;;;;;;;15.80;84.00;;;;;;4274449;33;44188;-84
2021/09/23 02:27:12;;;;;;;;;;;15.80;84.00;;;;;;4274371;33;43929;-83
2021/09/23 02:29:45;;;;;;;;;;;15.80;84.00;;;;;;4286244;33;43863;-83
2021/09/23 02:32:12;;;;;;;;;;;15.80;84.10;;;;;;4274359;33;45352;-83
2021/09/23 02:34:39;;;;;;;;;;;15.70;84.20;;;;;;4287491;33;45968;-83
2021/09/23 02:37:07;;;;;;;;;;;15.70;84.30;;;;;;4287191;33;44318;-83
2021/09/23 02:39:37;;;;;;;;;;;15.70;84.30;;;;;;4274819;33;43320;-83
2021/09/23 02:42:04;;;;;;;;;;;15.70;84.20;;;;;;4274370;33;44198;-83
2021/09/23 02:44:31;;;;;;;;;;;15.80;84.20;;;;;;4274614;33;43113;-83
2021/09/23 02:46:59;;;;;;;;;;;15.70;84.20;;;;;;4287363;33;44221;-83
2021/09/23 02:49:26;;;;;;;;;;;15.70;84.30;;;;;;4274542;33;42503;-84
2021/09/23 02:51:54;;;;;;;;;;;15.70;84.40;;;;;;4274096;33;42285;-84
2021/09/23 02:54:24;;;;;;;;;;;15.70;84.30;;;;;;4274044;33;43578;-83
2021/09/23 02:56:51;;;;;;;;;;;15.70;84.40;;;;;;4286921;33;42918;-84
2021/09/23 02:59:18;;;;;;;;;;;15.70;84.50;;;;;;4274520;33;44009;-84
2021/09/23 03:01:45;;;;;;;;;;;15.70;84.40;;;;;;4274065;33;41493;-84
2021/09/23 03:04:13;;;;;;;;;;;15.70;84.40;;;;;;4274157;33;43246;-84
2021/09/23 03:06:40;;;;;;;;;;;15.70;84.30;;;;;;4287209;33;44030;-84
2021/09/23 03:09:08;;;;;;;;;;;15.70;84.20;;;;;;4274283;33;45354;-84
2021/09/23 03:11:36;;;;;;;;;;;15.70;84.10;;;;;;4273755;33;46019;-84
2021/09/23 03:14:03;;;;;;;;;;;15.80;84.00;;;;;;4287252;33;44711;-84
2021/09/23 03:16:30;;;;;;;;;;;15.80;83.80;;;;;;4274144;33;43855;-84
2021/09/23 03:18:57;;;;;;;;;;;15.80;84.50;;;;;;4287123;33;44292;-84
2021/09/23 03:21:24;;;;;;;;;;;15.80;83.60;;;;;;4287032;33;44243;-84
2021/09/23 03:23:52;;;;;;;;;;;15.90;83.50;;;;;;4274093;33;45451;-84
2021/09/23 03:26:22;;;;;;;;;;;15.90;83.40;;;;;;4273911;33;44471;-83
2021/09/23 03:28:49;;;;;;;;;;;15.90;83.30;;;;;;4287020;33;43272;-84
2021/09/23 03:31:17;;;;;;;;;;;16.00;83.20;;;;;;4273537;33;45551;-84
2021/09/23 03:33:44;;;;;;;;;;;15.90;83.10;;;;;;4285501;33;42976;-84
2021/09/23 03:36:11;;;;;;;;;;;15.90;83.00;;;;;;4285472;33;42624;-84
2021/09/23 03:38:40;;;;;;;;;;;15.90;83.00;;;;;;4273683;33;44718;-84
2021/09/23 03:41:08;;;;;;;;;;;15.90;82.90;;;;;;4274036;33;45411;-84
2021/09/23 03:43:35;;;;;;;;;;;15.90;82.80;;;;;;4290917;33;45742;-84
2021/09/23 03:46:05;;;;;;;;;;;15.90;82.80;;;;;;4290119;33;45935;-84
2021/09/23 03:48:32;;;;;;;;;;;15.90;82.70;;;;;;4278909;33;44989;-84
2021/09/23 03:51:02;;;;;;;;;;;15.90;82.70;;;;;;4278440;33;43556;-84
2021/09/23 03:53:31;;;;;;;;;;;15.80;82.60;;;;;;4278822;33;43872;-84
2021/09/23 03:55:58;;;;;;;;;;;15.80;82.60;;;;;;4278839;33;45316;-84
2021/09/23 03:58:25;;;;;;;;;;;15.80;82.60;;;;;;4290644;33;45613;-84
2021/09/23 04:00:54;;;;;;;;;;;15.80;82.70;;;;;;4290417;33;46086;-84
2021/09/23 04:03:23;;;;;;;;;;;15.80;82.90;;;;;;4278234;33;43375;-84
2021/09/23 04:05:51;;;;;;;;;;;15.70;83.00;;;;;;4290528;33;44911;-84
2021/09/23 04:08:20;;;;;;;;;;;15.70;83.00;;;;;;4291255;33;43280;-84
2021/09/23 04:10:47;;;;;;;;;;;15.70;83.00;;;;;;4291461;33;43895;-84
2021/09/23 04:13:14;;;;;;;;;;;15.70;82.90;;;;;;4291647;33;42121;-84
2021/09/23 04:15:49;;;;;;;;;;;15.70;82.90;;;;;;4291073;33;45950;-84
2021/09/23 04:18:21;;;;;;;;;;;15.70;82.90;;;;;;4278669;33;43202;-83
2021/09/23 04:20:49;;;;;;;;;;;15.60;83.00;;;;;;4279546;33;19999;-84
2021/09/23 04:23:16;;;;;;;;;;;15.60;83.00;;;;;;4278539;33;45963;-84
2021/09/23 04:25:43;;;;;;;;;;;15.60;83.10;;;;;;4291264;33;44098;-84
2021/09/23 04:28:10;;;;;;;;;;;15.60;83.20;;;;;;4291463;33;45347;-83
2021/09/23 04:30:37;;;;;;;;;;;15.50;83.40;;;;;;4277989;33;46018;-83
2021/09/23 04:33:05;;;;;;;;;;;15.40;83.60;;;;;;4290009;33;43354;-83
2021/09/23 04:35:32;;;;;;;;;;;15.40;83.70;;;;;;4290206;33;44168;-83
2021/09/23 04:37:59;;;;;;;;;;;15.40;83.70;;;;;;4278502;33;44722;-83
2021/09/23 04:40:29;;;;;;;;;;;15.40;83.80;;;;;;4278512;33;44796;-83
2021/09/23 04:42:56;;;;;;;;;;;15.40;83.70;;;;;;4278434;33;43922;-83
2021/09/23 04:45:23;;;;;;;;;;;15.50;83.80;;;;;;4278063;33;45889;-83
2021/09/23 04:47:53;;;;;;;;;;;15.50;83.70;;;;;;4278749;33;44717;-83
2021/09/23 04:50:21;;;;;;;;;;;15.50;83.70;;;;;;4278014;33;44191;-83
2021/09/23 04:52:48;;;;;;;;;;;15.50;83.60;;;;;;4277913;33;44639;-83
2021/09/23 04:55:15;;;;;;;;;;;15.50;83.50;;;;;;4275382;33;43078;-83
2021/09/23 04:57:42;;;;;;;;;;;15.50;83.50;;;;;;4287807;33;45454;-83
2021/09/23 05:00:10;;;;;;;;;;;15.50;83.50;;;;;;4276100;33;44044;-83
2021/09/23 05:02:37;;;;;;;;;;;15.50;83.50;;;;;;4287540;33;45478;-83
2021/09/23 05:05:04;;;;;;;;;;;15.50;83.50;;;;;;4275620;33;42207;-83
2021/09/23 05:07:32;;;;;;;;;;;15.50;83.50;;;;;;4288801;33;42697;-83
2021/09/23 05:09:59;;;;;;;;;;;15.50;83.60;;;;;;4275790;33;43291;-83
2021/09/23 05:12:26;;;;;;;;;;;15.50;83.50;;;;;;4275813;33;43725;-83
2021/09/23 05:14:56;;;;;;;;;;;15.50;83.50;;;;;;4288419;33;44109;-84
2021/09/23 05:17:26;;;;;;;;;;;15.50;83.60;;;;;;4287290;33;42749;-84
2021/09/23 05:19:56;;;;;;;;;;;15.50;83.70;;;;;;4275632;33;45911;-83
2021/09/23 05:22:29;;;;;;;;;;;15.50;83.60;;;;;;4275729;33;45338;-83
2021/09/23 05:24:56;;;;;;;;;;;15.50;83.70;;;;;;4288761;33;44283;-83
2021/09/23 05:27:23;;;;;;;;;;;15.50;83.70;;;;;;4275383;33;45393;-83
2021/09/23 05:29:53;;;;;;;;;;;15.50;83.70;;;;;;4275298;33;44623;-83
2021/09/23 05:32:20;;;;;;;;;;;15.50;83.70;;;;;;4286913;33;45392;-83
2021/09/23 05:34:50;;;;;;;;;;;15.50;83.70;;;;;;4275189;33;45687;-83
2021/09/23 05:37:20;;;;;;;;;;;15.50;83.70;;;;;;4275453;33;46295;-83
2021/09/23 05:39:48;;;;;;;;;;;15.50;83.70;;;;;;4275567;33;44271;-83
2021/09/23 05:42:18;;;;;;;;;;;15.50;83.70;;;;;;4275169;33;44756;-83
2021/09/23 05:44:45;;;;;;;;;;;15.50;83.70;;;;;;4275619;33;45229;-83
2021/09/23 05:47:18;;;;;;;;;;;15.50;83.70;;;;;;4288376;33;45734;-83
2021/09/23 05:49:46;;;;;;;;;;;15.50;83.70;;;;;;4275357;33;45404;-83
2021/09/23 05:52:16;;;;;;;;;;;15.40;84.40;;;;;;4274854;33;46017;-82
2021/09/23 05:54:49;;;;;;;;;;;15.40;83.80;;;;;;4287186;33;44594;-82
2021/09/23 05:57:25;;;;;;;;;;;15.40;84.00;;;;;;4275265;33;46053;-83
2021/09/23 05:59:58;;;;;;;;;;;15.30;84.20;;;;;;4288155;33;43495;-82
2021/09/23 06:02:25;;;;;;;;;;;15.30;84.40;;;;;;4274729;33;42439;-83
2021/09/23 06:04:56;;;;;;;;;;;15.30;84.40;;;;;;4286597;33;44279;-83
2021/09/23 06:07:26;;;;;;;;;;;15.20;84.30;;;;;;4274573;33;45691;-82
2021/09/23 06:09:56;;;;;;;;;;;15.20;84.50;;;;;;4274699;33;45298;-82
2021/09/23 06:12:32;;;;;;;;;;;15.10;84.80;;;;;;4274684;33;42108;-82
2021/09/23 06:14:59;;;;;;;;;;;15.00;85.10;;;;;;4287997;33;45439;-83
2021/09/23 06:17:27;;;;;;;;;;;14.90;85.40;;;;;;4275209;33;44343;-82
2021/09/23 06:19:59;;;;;;;;;;;14.90;85.70;;;;;;4274434;33;45782;-83
2021/09/23 06:22:32;;;;;;;;;;;14.80;85.80;;;;;;4275410;33;19998;-82
2021/09/23 06:25:02;;;;;;;;;;;14.80;86.00;;;;;;4287910;33;46050;-82
2021/09/23 06:27:32;;;;;;;;;;;14.70;86.20;;;;;;4287291;33;43235;-82
2021/09/23 06:30:00;;;;;;;;;;;14.70;86.40;;;;;;4286670;33;44455;-82
2021/09/23 06:32:38;;;;;;;;;;;14.70;86.50;;;;;;4287810;33;42475;-82
2021/09/23 06:35:05;;;;;;;;;;;14.70;86.60;;;;;;4286721;33;44800;-82
2021/09/23 06:37:52;;;;;;;;;;;14.70;86.90;;;;;;4276089;33;43073;-82
2021/09/23 06:40:28;;;;;;;;;;;14.60;87.00;;;;;;4274649;33;43672;-82
2021/09/23 06:42:58;;;;;;;;;;;14.60;87.20;;;;;;4287361;33;44050;-83
2021/09/23 06:45:32;;;;;;;;;;;14.60;87.50;;;;;;4274709;33;45827;-83
2021/09/23 06:48:01;;;;;;;;;;;14.60;87.50;;;;;;4274761;33;44253;-82
2021/09/23 06:50:34;;;;;;;;;;;14.60;87.60;;;;;;4273943;33;45822;-82
2021/09/23 06:53:07;;;;;;;;;;;14.60;87.60;;;;;;4288259;33;20405;-82
2021/09/23 06:55:37;;;;;;;;;;;14.70;87.70;;;;;;4287022;33;42441;-83
2021/09/23 06:58:10;;;;;;;;;;;14.70;87.70;;;;;;4286077;33;44955;-82
2021/09/23 07:00:37;;;;;;;;;;;14.70;87.70;;;;;;4286901;33;43258;-82
2021/09/23 07:03:07;;;;;;;;;;;14.70;87.80;;;;;;4274008;33;44539;-83
2021/09/23 07:05:45;;;;;;;;;;;14.70;88.60;;;;;;4274589;33;42253;-83
2021/09/23 07:08:21;;;;;;;;;;;14.80;87.70;;;;;;4287342;33;44333;-83
2021/09/23 07:10:50;;;;;;;;;;;14.90;87.80;;;;;;4274163;33;43503;-83
2021/09/23 07:13:20;;;;;;;;;;;14.80;87.70;;;;;;4286705;33;45798;-83
2021/09/23 07:15:53;;;;;;;;;;;14.90;87.80;;;;;;4287214;33;44080;-83
2021/09/23 07:18:20;;;;;;;;;;;15.00;87.90;;;;;;4273920;33;43576;-83
2021/09/23 07:20:55;;;;;;;;;;;15.00;87.80;;;;;;4273882;33;44126;-82
2021/09/23 07:23:35;;;;;;;;;;;15.00;87.70;;;;;;4287833;33;19999;-82
2021/09/23 07:26:08;;;;;;;;;;;15.10;87.80;;;;;;4274084;33;44848;-82
2021/09/23 07:28:45;;;;;;;;;;;15.00;87.70;;;;;;4274088;33;44226;-82
2021/09/23 07:31:20;;;;;;;;;;;15.10;87.90;;;;;;4274115;33;42084;-82
2021/09/23 07:33:56;;;;;;;;;;;15.10;87.80;;;;;;4273958;33;45384;-83
2021/09/23 07:36:31;;;;;;;;;;;15.10;87.80;;;;;;4287023;33;42568;-82
2021/09/23 07:39:06;;;;;;;;;;;15.20;87.90;;;;;;4273624;33;44200;-82
2021/09/23 07:41:37;;;;;;;;;;;15.20;88.00;;;;;;4274321;33;42172;-82
2021/09/23 07:44:05;;;;;;;;;;;15.20;88.00;;;;;;4287032;33;42910;-82
2021/09/23 07:46:37;;;;;;;;;;;15.20;88.00;;;;;;4287019;33;43225;-82
2021/09/23 07:49:11;;;;;;;;;;;15.20;88.10;;;;;;4274109;33;42967;-82
2021/09/23 07:51:49;;;;;;;;;;;15.20;88.10;;;;;;4274449;33;44340;-81
2021/09/23 07:54:27;;;;;;;;;;;15.20;88.20;;;;;;4287916;33;19995;-82
2021/09/23 07:57:02;;;;;;;;;;;15.20;88.30;;;;;;4286940;33;44291;-81
2021/09/23 07:59:37;;;;;;;;;;;15.20;88.50;;;;;;4274299;33;42525;-81
2021/09/23 08:02:15;;;;;;;;;;;15.20;88.40;;;;;;4286687;33;45093;-82
2021/09/23 08:04:51;;;;;;;;;;;15.30;88.50;;;;;;4274019;33;44386;-81
2021/09/23 08:07:26;;;;;;;;;;;15.30;88.50;;;;;;4285712;33;44009;-81
2021/09/23 08:09:53;;;;;;;;;;;15.30;88.50;;;;;;4285334;33;45033;-82
2021/09/23 08:12:23;;;;;;;;;;;15.30;88.60;;;;;;4273570;33;43837;-81
2021/09/23 08:14:58;;;;;;;;;;;15.30;88.70;;;;;;4274113;33;44630;-81
2021/09/23 08:17:31;;;;;;;;;;;15.30;88.60;;;;;;4273855;33;46042;-81
2021/09/23 08:19:58;;;;;;;;;;;15.40;88.60;;;;;;4273914;33;45302;-81
2021/09/23 08:22:31;;;;;;;;;;;15.40;88.40;;;;;;4273780;33;42787;-82
2021/09/23 08:25:01;;;;;;;;;;;15.40;88.50;;;;;;4274648;33;20041;-81
2021/09/23 08:27:34;;;;;;;;;;;15.40;88.40;;;;;;4285553;33;43486;-81
2021/09/23 08:30:09;;;;;;;;;;;15.40;88.30;;;;;;4275717;33;43200;-81
2021/09/23 08:32:44;;;;;;;;;;;15.50;88.40;;;;;;4276520;33;44215;-81
2021/09/23 08:35:22;;;;;;;;;;;15.50;89.20;;;;;;4288897;33;43725;-82
2021/09/23 08:37:49;;;;;;;;;;;15.50;88.30;;;;;;4289525;33;44962;-81
2021/09/23 08:40:22;;;;;;;;;;;15.50;88.40;;;;;;4276369;33;44219;-81
2021/09/23 08:42:52;;;;;;;;;;;15.50;88.30;;;;;;4289260;33;43920;-80
2021/09/23 08:45:22;;;;;;;;;;;15.60;88.50;;;;;;4276240;33;45413;-81
2021/09/23 08:47:52;;;;;;;;;;;15.60;88.40;;;;;;4275912;33;44062;-80
2021/09/23 08:50:25;;;;;;;;;;;15.60;88.30;;;;;;4288171;33;43203;-80
2021/09/23 08:53:00;;;;;;;;;;;15.60;88.40;;;;;;4289139;33;45106;-82
2021/09/23 08:55:35;;;;;;;;;;;15.60;88.20;;;;;;4277995;33;20003;-81
2021/09/23 08:58:06;;;;;;;;;;;15.60;88.40;;;;;;4288627;33;43776;-81
2021/09/23 09:00:36;;;;;;;;;;;15.70;88.30;;;;;;4275964;33;44749;-79
2021/09/23 09:03:07;;;;;;;;;;;15.70;88.10;;;;;;4275694;33;44827;-81
2021/09/23 09:05:38;;;;;;;;;;;15.70;88.10;;;;;;4276051;33;43481;-81
2021/09/23 09:08:11;;;;;;;;;;;15.70;87.90;;;;;;4288789;33;44161;-80
2021/09/23 09:10:43;;;;;;;;;;;15.80;88.00;;;;;;4275875;33;45989;-81
2021/09/23 09:13:15;;;;;;;;;;;15.80;87.90;;;;;;4275991;33;43185;-81
2021/09/23 09:15:46;;;;;;;;;;;15.80;87.80;;;;;;4275875;33;43477;-81
2021/09/23 09:18:20;;;;;;;;;;;15.80;87.90;;;;;;4275465;33;43032;-80
2021/09/23 09:21:00;;;;;;;;;;;15.90;87.90;;;;;;4288737;33;44996;-81
2021/09/23 09:23:38;;;;;;;;;;;15.90;87.80;;;;;;4287940;33;41750;-81
2021/09/23 09:26:09;;;;;;;;;;;15.90;87.80;;;;;;4276724;33;19991;-80
2021/09/23 09:28:48;;;;;;;;;;;15.90;87.90;;;;;;4288258;33;43607;-80
2021/09/23 09:31:20;;;;;;;;;;;15.90;87.80;;;;;;4275750;33;44722;-80
2021/09/23 09:33:53;;;;;;;;;;;16.00;87.90;;;;;;4288620;33;44244;-81
2021/09/23 09:36:27;;;;;;;;;;;16.00;87.80;;;;;;4275649;33;43569;-80
2021/09/23 09:39:00;;;;;;;;;;;16.00;87.80;;;;;;4275731;33;43398;-81
2021/09/23 09:41:28;;;;;;;;;;;16.00;87.80;;;;;;4274760;33;44172;-81
2021/09/23 09:43:59;;;;;;;;;;;16.10;87.90;;;;;;4275353;33;43484;-81
2021/09/23 09:46:41;;;;;;;;;;;16.20;87.80;;;;;;4275140;33;43728;-81
2021/09/23 09:49:09;;;;;;;;;;;16.10;87.70;;;;;;4287386;33;44495;-80
2021/09/23 09:51:40;;;;;;;;;;;16.20;87.90;;;;;;4288134;33;45809;-81
2021/09/23 09:54:11;;;;;;;;;;;16.20;87.70;;;;;;4288355;33;43230;-81
2021/09/23 09:56:40;;;;;;;;;;;16.20;87.50;;;;;;4276194;33;19995;-81
2021/09/23 09:59:12;;;;;;;;;;;16.30;87.60;;;;;;4274953;33;43026;-81
2021/09/23 10:01:41;;;;;;;;;;;16.30;87.50;;;;;;4275044;33;42478;-80
2021/09/23 10:04:18;;;;;;;;;;;16.40;87.40;;;;;;4274894;33;43786;-79
2021/09/23 10:06:49;;;;;;;;;;;16.40;87.40;;;;;;4274671;33;44453;-81
2021/09/23 10:09:24;;;;;;;;;;;16.40;87.30;;;;;;4275291;33;45287;-80
2021/09/23 10:11:53;;;;;;;;;;;16.40;87.20;;;;;;4275195;33;44365;-79
2021/09/23 10:14:26;;;;;;;;;;;16.50;87.30;;;;;;4274505;33;43728;-81
2021/09/23 10:16:58;;;;;;;;;;;16.50;87.20;;;;;;4287065;33;43884;-80
2021/09/23 10:19:29;;;;;;;;;;;16.50;87.20;;;;;;4287948;33;43500;-79
2021/09/23 10:21:57;;;;;;;;;;;16.60;87.20;;;;;;4287918;33;43649;-81
2021/09/23 10:24:27;;;;;;;;;;;16.60;87.10;;;;;;4274470;33;43120;-80
2021/09/23 10:26:54;;;;;;;;;;;16.60;87.20;;;;;;4288838;33;20058;-80
2021/09/23 10:29:28;;;;;;;;;;;16.70;87.00;;;;;;4287716;33;44887;-80
2021/09/23 10:31:58;;;;;;;;;;;16.70;86.90;;;;;;4287846;33;44200;-79
2021/09/23 10:34:29;;;;;;;;;;;16.80;86.90;;;;;;4287331;33;44200;-79
2021/09/23 10:36:56;;;;;;;;;;;16.80;86.80;;;;;;4274422;33;42893;-80
2021/09/23 10:39:24;;;;;;;;;;;16.80;86.90;;;;;;4274413;33;44661;-81
2021/09/23 10:41:54;;;;;;;;;;;16.90;86.80;;;;;;4274345;33;44880;-79
2021/09/23 10:44:23;;;;;;;;;;;17.00;86.80;;;;;;4274673;33;46108;-78
2021/09/23 10:46:53;;;;;;;;;;;17.00;86.50;;;;;;4274212;33;44001;-79
2021/09/23 10:49:25;;;;;;;;;;;17.00;86.20;;;;;;4274203;33;44431;-78
2021/09/23 10:51:55;;;;;;;;;;;17.10;87.00;;;;;;4287036;33;44235;-79
2021/09/23 10:54:24;;;;;;;;;;;17.10;86.20;;;;;;4287263;33;44177;-78
2021/09/23 10:56:51;;;;;;;;;;;17.20;86.10;;;;;;4274497;33;43311;-80
2021/09/23 10:59:27;;;;;;;;;;;17.20;85.80;;;;;;4274141;33;43288;-79
2021/09/23 11:01:54;;;;;;;;;;;17.20;85.70;;;;;;4287297;33;43057;-79
2021/09/23 11:04:27;;;;;;;;;;;17.30;85.80;;;;;;4275255;33;45814;-79
2021/09/23 11:07:00;;;;;;;;;;;17.40;85.70;;;;;;4274426;33;42542;-79
2021/09/23 11:09:35;;;;;;;;;;;17.40;85.70;;;;;;4286230;33;43069;-79
2021/09/23 11:12:05;;;;;;;;;;;17.50;85.70;;;;;;4274236;33;44573;-79
2021/09/23 11:14:33;;;;;;;;;;;17.50;85.60;;;;;;4273947;33;43406;-79
2021/09/23 11:17:02;;;;;;;;;;;17.50;85.60;;;;;;4274359;33;44640;-79
2021/09/23 11:19:32;;;;;;;;;;;17.60;85.60;;;;;;4274288;33;43682;-79
2021/09/23 11:22:11;;;;;;;;;;;17.60;85.30;;;;;;4274515;33;43897;-78
2021/09/23 11:24:46;;;;;;;;;;;17.70;84.70;;;;;;4287243;33;44977;-78
2021/09/23 11:27:20;;;;;;;;;;;17.70;84.40;;;;;;4287183;33;43793;-78
2021/09/23 11:29:47;;;;;;;;;;;17.80;84.80;;;;;;4274192;33;43718;-78
2021/09/23 11:32:20;;;;;;;;;;;17.80;84.80;;;;;;4273796;33;43478;-79
2021/09/23 11:34:57;;;;;;;;;;;17.90;84.60;;;;;;4286037;33;44091;-78
2021/09/23 11:37:28;;;;;;;;;;;17.90;84.30;;;;;;4286994;33;44070;-79
2021/09/23 11:39:57;;;;;;;;;;;18.00;84.50;;;;;;4287036;33;45369;-79
2021/09/23 11:42:35;;;;;;;;;;;17.90;84.30;;;;;;4286452;33;45817;-79
2021/09/23 11:45:08;;;;;;;;;;;18.00;84.30;;;;;;4274210;33;43287;-77
2021/09/23 11:47:50;;;;;;;;;;;18.10;84.40;;;;;;4273798;33;44167;-78
2021/09/23 11:50:37;;;;;;;;;;;18.10;84.20;;;;;;4273731;33;44713;-79
2021/09/23 11:53:13;;;;;;;;;;;18.10;84.20;;;;;;4274074;33;44519;-78
2021/09/23 11:55:47;;;;;;;;;;;18.20;83.90;;;;;;4286965;33;44120;-79
2021/09/23 11:58:22;;;;;;;;;;;18.20;83.60;;;;;;4274400;33;43417;-79
2021/09/23 12:00:50;;;;;;;;;;;18.30;84.10;;;;;;4273546;33;42858;-79
2021/09/23 12:03:26;;;;;;;;;;;18.30;83.80;;;;;;4274730;33;43884;-79
2021/09/23 12:05:56;;;;;;;;;;;18.30;83.50;;;;;;4276991;33;42537;-79
2021/09/23 12:08:33;;;;;;;;;;;18.30;83.70;;;;;;4276433;33;43816;-77
2021/09/23 12:11:02;;;;;;;;;;;18.40;83.50;;;;;;4276383;33;43344;-77
2021/09/23 12:13:42;;;;;;;;;;;18.40;82.80;;;;;;4276834;33;43256;-78
2021/09/23 12:16:18;;;;;;;;;;;18.50;82.80;;;;;;4289668;33;43898;-77
2021/09/23 12:18:46;;;;;;;;;;;18.50;83.40;;;;;;4276669;33;43689;-78
2021/09/23 12:21:34;;;;;;;;;;;18.50;83.00;;;;;;4276405;33;43222;-78
2021/09/23 12:24:01;;;;;;;;;;;18.60;83.10;;;;;;4289450;33;43742;-78
2021/09/23 12:26:44;;;;;;;;;;;18.60;83.30;;;;;;4276466;33;43250;-78
2021/09/23 12:29:15;;;;;;;;;;;18.60;83.30;;;;;;4276070;33;44293;-78
2021/09/23 12:31:51;;;;;;;;;;;18.70;83.10;;;;;;4276011;33;43241;-77
2021/09/23 12:34:22;;;;;;;;;;;18.70;82.90;;;;;;4276125;33;43818;-79
2021/09/23 12:36:59;;;;;;;;;;;18.70;82.50;;;;;;4289640;33;43353;-77
2021/09/23 12:39:41;;;;;;;;;;;18.80;83.10;;;;;;4275977;33;44028;-77
2021/09/23 12:42:22;;;;;;;;;;;18.80;82.50;;;;;;4289271;33;44352;-77
2021/09/23 12:45:12;;;;;;;;;;;18.80;82.80;;;;;;4276269;33;44279;-78
2021/09/23 12:47:44;;;;;;;;;;;18.90;82.50;;;;;;4272429;33;43864;-78
2021/09/23 12:50:12;;;;;;;;;;;18.90;82.90;;;;;;4276159;33;43716;-77
2021/09/23 12:52:47;;;;;;;;;;;18.90;82.90;;;;;;4275848;33;44227;-78
2021/09/23 12:55:22;;;;;;;;;;;18.90;82.50;;;;;;4289128;33;42837;-77
2021/09/23 12:57:55;;;;;;;;;;;19.00;82.60;;;;;;4288965;33;42946;-77
2021/09/23 13:00:35;;;;;;;;;;;19.00;82.50;;;;;;4276136;33;44409;-77
2021/09/23 13:03:06;;;;;;;;;;;19.00;82.60;;;;;;4275589;33;42869;-77
2021/09/23 13:05:40;;;;;;;;;;;19.10;82.90;;;;;;4276257;33;45146;-77
2021/09/23 13:08:17;;;;;;;;;;;19.10;82.70;;;;;;4289046;33;42733;-78
2021/09/23 13:10:47;;;;;;;;;;;19.20;83.10;;;;;;4276093;33;44199;-78
2021/09/23 13:13:23;;;;;;;;;;;19.20;82.90;;;;;;4288497;33;44988;-78
2021/09/23 13:15:53;;;;;;;;;;;19.30;82.10;;;;;;4274880;33;43446;-79
2021/09/23 13:18:28;;;;;;;;;;;19.30;82.20;;;;;;4288955;33;43861;-78
2021/09/23 13:20:58;;;;;;;;;;;19.30;82.40;;;;;;4288969;33;43875;-78
2021/09/23 13:23:29;;;;;;;;;;;19.40;82.60;;;;;;4288700;33;43478;-78
2021/09/23 13:26:06;;;;;;;;;;;19.40;82.80;;;;;;4288798;33;43794;-77
2021/09/23 13:28:44;;;;;;;;;;;19.40;82.90;;;;;;4275615;33;42696;-77
2021/09/23 13:31:22;;;;;;;;;;;19.50;82.70;;;;;;4288755;33;44484;-78
2021/09/23 13:33:52;;;;;;;;;;;19.50;82.60;;;;;;4275658;33;44298;-78
2021/09/23 13:36:24;;;;;;;;;;;19.60;83.00;;;;;;4287995;33;46065;-78
2021/09/23 13:38:56;;;;;;;;;;;19.60;82.80;;;;;;4288290;33;44964;-78
2021/09/23 13:41:29;;;;;;;;;;;19.60;82.90;;;;;;4275567;33;43247;-77
2021/09/23 13:44:02;;;;;;;;;;;19.70;83.20;;;;;;4275200;33;44275;-78
2021/09/23 13:46:35;;;;;;;;;;;19.70;82.90;;;;;;4288229;33;43482;-78
2021/09/23 13:49:02;;;;;;;;;;;19.70;83.10;;;;;;4288474;33;44276;-78
2021/09/23 13:51:29;;;;;;;;;;;19.80;83.20;;;;;;4286719;33;44452;-78
2021/09/23 13:54:04;;;;;;;;;;;19.80;83.30;;;;;;4275434;33;43114;-77
2021/09/23 13:56:36;;;;;;;;;;;19.80;83.30;;;;;;4275431;33;45837;-78
2021/09/23 13:59:03;;;;;;;;;;;19.80;83.20;;;;;;4288170;33;43904;-77
2021/09/23 14:01:37;;;;;;;;;;;19.90;83.30;;;;;;4287619;33;42864;-77
2021/09/23 14:04:04;;;;;;;;;;;19.90;83.40;;;;;;4288326;33;43566;-80
2021/09/23 14:06:35;;;;;;;;;;;20.00;83.20;;;;;;4288175;33;44014;-77
2021/09/23 14:09:02;;;;;;;;;;;20.00;83.40;;;;;;4288095;33;44151;-78
2021/09/23 14:11:30;;;;;;;;;;;20.00;83.40;;;;;;4287942;33;44023;-77
2021/09/23 14:13:57;;;;;;;;;;;20.10;83.50;;;;;;4287960;33;43264;-78
2021/09/23 14:16:24;;;;;;;;;;;20.10;83.50;;;;;;4287708;33;43288;-77
2021/09/23 14:18:54;;;;;;;;;;;20.20;83.40;;;;;;4287565;33;42451;-78
2021/09/23 14:21:24;;;;;;;;;;;20.20;83.50;;;;;;4275163;33;43475;-77
2021/09/23 14:23:52;;;;;;;;;;;20.20;83.40;;;;;;4274534;33;44204;-78
2021/09/23 14:26:21;;;;;;;;;;;20.30;83.50;;;;;;4274941;33;42873;-78
2021/09/23 14:28:54;;;;;;;;;;;20.30;83.30;;;;;;4275001;33;43820;-77
2021/09/23 14:31:24;;;;;;;;;;;20.30;83.50;;;;;;4287707;33;44381;-77
2021/09/23 14:33:51;;;;;;;;;;;20.40;83.20;;;;;;4288337;33;20325;-77
2021/09/23 14:36:22;;;;;;;;;;;20.30;83.10;;;;;;4274808;33;43938;-78